Flight Track Log - Related Links

Times and Time Zones

All times are in EST time to prevent confusion due to time zone crossing. See the AMF1324 flight status page for this flight to view local times or setup timezone preferences in your user account.

Time Position Orientation Groundspeed Altitude Reporting Facility
EST Latitude Longitude Course Direction KTS MPH feet Rate Location/Type
Tue 07:17:36 AM 42.9500 -78.7167 90° East 145 167 1,400  Level Buffalo TRACON
Tue 07:17:42 AM 42.9500 -78.7000 90° East 149 171 1,700 1,862 Climbing Buffalo TRACON
Tue 07:19:03 AM 42.9606 -78.6233 79° East 192 221 4,100 1,817 Climbing Cleveland Center
Tue 07:20:04 AM 42.9447 -78.5511 107° East 190 219 6,000 1,610 Climbing Cleveland Center
Tue 07:21:06 AM 42.9292 -78.4733 105° East 201 231 7,400 1,403 Climbing Cleveland Center
Tue 07:22:08 AM 42.9106 -78.3917 107° East 216 249 8,900 1,415 Climbing Cleveland Center
Tue 07:23:09 AM 42.8953 -78.3119 105° East 220 253 10,300 1,463 Climbing Cleveland Center
Tue 07:24:11 AM 42.8842 -78.2336 101° East 210 242 11,900 1,306 Climbing Cleveland Center
Tue 07:25:13 AM 42.8736 -78.1547 100° East 213 245 13,000 488 Climbing Cleveland Center
Tue 07:26:14 AM 42.8631 -78.0614 99° East 252 290 12,900 -49 Descending Cleveland Center
Tue 07:27:16 AM 42.8550 -77.9642 96° East 259 298 12,900 48 Level Cleveland Center
Tue 07:28:18 AM 42.8467 -77.8633 96° East 267 307 13,000 49 Climbing Cleveland Center
Tue 07:29:19 AM 42.8397 -77.7614 95° East 268 308 13,000  Level Cleveland Center
Tue 07:30:21 AM 42.8056 -77.6453 112° Southeast 274 315 13,000 -48 Level Cleveland Center
Tue 07:31:23 AM 42.7681 -77.5519 119° Southeast 277 319 12,900 -49 Descending Cleveland Center
Tue 07:32:24 AM 42.7294 -77.4589 119° Southeast 279 321 12,900 98 Level Cleveland Center
Tue 07:33:26 AM 42.6922 -77.3678 119° Southeast 274 315 13,100 97 Climbing Cleveland Center
Tue 07:34:28 AM 42.6556 -77.2761 119° Southeast 274 315 13,100  Level Cleveland Center
Tue 07:35:29 AM 42.6172 -77.1850 120° Southeast 276 318 13,100  Level Cleveland Center
Tue 07:36:31 AM 42.5753 -77.0958 123° Southeast 278 320 13,100  Level Cleveland Center
Tue 07:37:33 AM 42.5342 -77.0075 122° Southeast 278 320 13,100 -49 Level Cleveland Center
Tue 07:38:34 AM 42.4922 -76.9169 122° Southeast 284 327 13,000 -49 Descending Cleveland Center
Tue 07:39:36 AM 42.4531 -76.8250 120° Southeast 283 326 13,000 -247 Level Cleveland Center
Tue 07:40:11 AM 42.4300 -76.7653 118° Southeast 286 329 12,600 -1,097 Descending New York Center
Tue 07:41:09 AM 42.3872 -76.6631 120° Southeast 292 336 11,300 -1,295 Descending New York Center
Tue 07:41:39 AM 42.3628 -76.6064 120° Southeast 312 359 10,700 -848 Descending Cleveland Center
Tue 07:42:41 AM 42.3217 -76.5086 120° Southeast 304 350 10,000 -774 Descending Cleveland Center
Tue 07:43:43 AM 42.2961 -76.4064 109° East 291 335 9,100 -878 Descending Cleveland Center
Tue 07:44:44 AM 42.2644 -76.3131 115° Southeast 285 328 8,200 -1,024 Descending Cleveland Center
Tue 07:45:46 AM 42.2267 -76.2178 118° Southeast 287 330 7,000 -1,306 Descending Cleveland Center
Tue 07:46:48 AM 42.1831 -76.1067 118° Southeast 284 327 5,500 968 Descending Cleveland Center
Tue 07:47:50 AM 42.1475 -76.0192 119° Southeast 275 316 9,000 -979 Climbing Cleveland Center
Tue 07:49:09 AM 42.1442 -75.9367 93° East 195 224 3,200 -2,700 Descending New York Center
Tue 07:50:10 AM 42.1556 -75.9094 61° Northeast 127 146 2,700 -492 Descending New York Center

Login

Don't have an account? Register now (free) for customized features, flight alerts, and more!